Terminal Aerodrome Forecast
Issued by NWS Greer, SC

Home | Current Version | Previous Version | Text Only | Print | Product List | Glossary On
Versions: 1 2 3 4 5 6 7 8 9 10 11 12 13 14 15 16 17 18 19 20 21 22 23 24 25 26 27 28 29 30 31 32 33 34 35 36 37 38 39 40 41 42 43 44 45
000
FTUS42 KGSP 021700 AAA
TAFAVL
TAF AMD
KAVL 021713Z 0217/0312 31010KT P6SM SCT030 BKN090
      TEMPO 0217/0218 3SM TSRA BKN030CB
     FM021800 32006KT P6SM VCTS BKN050CB
     FM022100 31006KT P6SM BKN050
     FM030300 00000KT P6SM BKN070
     FM030800 00000KT 3SM BR BKN005=

USA.gov is the U.S. government's official web portal to all federal, state and local government web resources and services.